METAR Data
IDs: Format: Raw Decoded Include TAF

Data at: 1944 UTC 18 Apr 2021

LIPH 181920Z AUTO VRB01KT 9999 BKN071/// OVC092/// 11/03 Q1017